createdAt,value
2019-04-14T00:01:30.444Z,26.68
2019-04-14T00:04:05.111Z,23.62
2019-04-14T00:06:37.543Z,37.83
2019-04-14T00:09:07.492Z,35.63
2019-04-14T00:11:38.682Z,37.20
2019-04-14T00:14:09.528Z,32.13
2019-04-14T00:16:38.544Z,32.40
2019-04-14T00:19:07.335Z,39.67
2019-04-14T00:21:36.780Z,34.70
2019-04-14T00:24:05.869Z,32.65
2019-04-14T00:26:35.614Z,34.23
2019-04-14T00:29:06.904Z,56.42
2019-04-14T00:31:37.124Z,44.93
2019-04-14T00:34:07.628Z,28.10
2019-04-14T00:36:50.398Z,28.85
2019-04-14T00:39:22.790Z,40.85
2019-04-14T00:41:57.217Z,52.85
2019-04-14T00:44:41.133Z,42.98
2019-04-14T00:47:18.199Z,28.15
2019-04-14T00:49:50.787Z,31.05
2019-04-14T00:52:19.653Z,32.80
2019-04-14T00:54:50.635Z,27.55
2019-04-14T00:57:20.149Z,23.18
2019-04-14T00:59:49.161Z,23.32
2019-04-14T01:02:21.533Z,19.15
2019-04-14T01:04:49.298Z,20.60
2019-04-14T01:07:18.000Z,23.85
2019-04-14T01:09:46.767Z,14.85
2019-04-14T01:12:15.557Z,11.57
2019-04-14T01:14:45.235Z,8.48
2019-04-14T01:17:15.436Z,13.40
2019-04-14T01:19:45.996Z,8.70
2019-04-14T01:22:16.079Z,6.17
2019-04-14T01:24:45.231Z,4.95
2019-04-14T01:27:14.595Z,5.40
2019-04-14T01:29:43.367Z,4.92
2019-04-14T01:32:16.009Z,4.33
2019-04-14T01:34:45.678Z,3.80
2019-04-14T01:37:15.857Z,4.35
2019-04-14T01:39:48.412Z,3.87
2019-04-14T01:42:22.298Z,3.60
2019-04-14T01:44:52.418Z,3.83
2019-04-14T01:47:22.643Z,3.75
2019-04-14T01:49:51.447Z,3.70
2019-04-14T01:52:31.790Z,3.60
2019-04-14T01:55:02.891Z,3.92
2019-04-14T01:57:33.377Z,3.85
2019-04-14T02:00:20.819Z,4.03
2019-04-14T02:02:50.815Z,4.20
2019-04-14T02:05:19.826Z,3.98
2019-04-14T02:07:53.678Z,4.28
2019-04-14T02:10:26.181Z,3.90
2019-04-14T02:12:56.402Z,3.85
2019-04-14T02:15:26.506Z,3.80
2019-04-14T02:17:58.911Z,4.03
2019-04-14T02:20:27.784Z,3.90
2019-04-14T02:22:57.307Z,3.80
2019-04-14T02:25:27.404Z,3.65
2019-04-14T02:27:56.515Z,3.72
2019-04-14T02:30:32.696Z,3.33
2019-04-14T02:33:24.049Z,3.55
2019-04-14T02:35:56.182Z,3.87
2019-04-14T02:38:36.711Z,3.65
2019-04-14T02:41:14.049Z,3.10
2019-04-14T02:43:29.378Z,3.60
2019-04-14T02:48:47.191Z,3.22
2019-04-14T02:51:04.254Z,3.62
2019-04-14T02:56:08.285Z,4.40
2019-04-14T02:58:55.211Z,3.62
2019-04-14T03:01:08.245Z,3.25
2019-04-14T03:06:05.383Z,3.37
2019-04-14T03:08:45.340Z,3.80
2019-04-14T03:16:14.062Z,4.22
2019-04-14T03:24:15.869Z,3.80
2019-04-14T03:26:54.142Z,3.70
2019-04-14T03:29:26.825Z,3.55
2019-04-14T03:32:14.209Z,3.58
2019-04-14T03:34:42.105Z,3.85
2019-04-14T03:44:42.026Z,3.95
2019-04-14T03:47:08.981Z,3.67
2019-04-14T03:49:37.451Z,3.55
2019-04-14T03:52:04.019Z,3.60
2019-04-14T03:54:36.586Z,4.05
2019-04-14T03:56:51.533Z,3.55
2019-04-14T03:59:21.694Z,4.10
2019-04-14T04:01:50.723Z,3.20
2019-04-14T04:04:20.646Z,3.10
2019-04-14T04:06:49.468Z,3.65
2019-04-14T04:09:21.425Z,3.62
2019-04-14T04:11:49.830Z,3.55
2019-04-14T04:14:18.787Z,3.75
2019-04-14T04:17:01.575Z,3.70
2019-04-14T04:19:40.751Z,4.23
2019-04-14T04:22:28.143Z,3.72
2019-04-14T04:25:00.818Z,3.95
2019-04-14T04:27:31.255Z,3.93
2019-04-14T04:30:12.404Z,3.70
2019-04-14T04:32:42.910Z,3.83
2019-04-14T04:35:13.731Z,3.42
2019-04-14T04:37:54.095Z,3.62
2019-04-14T04:40:24.680Z,3.37
2019-04-14T04:42:54.709Z,3.55
2019-04-14T04:45:27.712Z,3.47
2019-04-14T04:48:04.555Z,3.50
2019-04-14T04:50:34.582Z,3.10
2019-04-14T04:53:04.713Z,2.98
2019-04-14T04:55:37.336Z,6.00
2019-04-14T04:58:06.078Z,5.47
2019-04-14T05:00:35.303Z,7.22
2019-04-14T05:03:04.083Z,6.40
2019-04-14T05:05:51.393Z,4.65
2019-04-14T05:08:20.261Z,4.08
2019-04-14T05:10:50.493Z,3.12
2019-04-14T05:13:20.585Z,3.47
2019-04-14T05:15:51.182Z,3.08
2019-04-14T05:18:22.177Z,3.15
2019-04-14T05:20:53.275Z,3.20
2019-04-14T05:23:23.338Z,2.72
2019-04-14T05:25:52.341Z,2.85
2019-04-14T05:28:22.024Z,3.50
2019-04-14T05:30:52.554Z,3.10
2019-04-14T05:33:21.445Z,3.30
2019-04-14T05:35:50.958Z,3.20
2019-04-14T05:38:21.087Z,3.30
2019-04-14T05:40:51.688Z,3.12
2019-04-14T05:43:32.270Z,3.33
2019-04-14T05:45:52.221Z,3.50
2019-04-14T05:48:21.128Z,3.00
2019-04-14T05:50:49.826Z,3.30
2019-04-14T05:53:19.604Z,7.67
2019-04-14T05:55:52.534Z,3.50
2019-04-14T05:58:21.309Z,2.90
2019-04-14T06:00:53.807Z,3.40
2019-04-14T06:03:23.471Z,3.00
2019-04-14T06:05:52.400Z,3.45
2019-04-14T06:08:21.155Z,3.10
2019-04-14T06:10:49.906Z,3.10
2019-04-14T06:13:18.648Z,2.98
2019-04-14T06:15:47.324Z,2.80
2019-04-14T06:18:16.200Z,3.12
2019-04-14T06:20:44.920Z,4.20
2019-04-14T06:23:13.607Z,3.37
2019-04-14T06:25:42.293Z,2.75
2019-04-14T06:28:11.050Z,3.00
2019-04-14T06:30:44.251Z,2.72
2019-04-14T06:33:17.424Z,2.70
2019-04-14T06:36:06.923Z,2.85
2019-04-14T06:38:43.983Z,3.40
2019-04-14T06:41:14.510Z,2.47
2019-04-14T06:43:48.802Z,3.20
2019-04-14T06:46:13.629Z,3.72
2019-04-14T06:48:42.283Z,2.90
2019-04-14T06:51:10.914Z,2.92
2019-04-14T06:53:39.726Z,2.62
2019-04-14T06:56:08.467Z,2.58
2019-04-14T06:58:41.429Z,2.45
2019-04-14T07:01:10.139Z,3.35
2019-04-14T07:03:40.970Z,3.27
2019-04-14T07:06:09.669Z,3.05
2019-04-14T07:08:38.375Z,3.05
2019-04-14T07:11:06.950Z,3.22
2019-04-14T07:13:40.075Z,3.22
2019-04-14T07:16:08.810Z,2.60
2019-04-14T07:18:38.731Z,3.17
2019-04-14T07:21:07.427Z,2.98
2019-04-14T07:23:36.098Z,2.90
2019-04-14T07:26:04.780Z,2.87
2019-04-14T07:28:33.478Z,3.30
2019-04-14T07:31:20.096Z,3.00
2019-04-14T07:34:06.980Z,2.92
2019-04-14T07:36:49.297Z,2.98
2019-04-14T07:39:31.786Z,2.50
2019-04-14T07:42:12.366Z,3.20
2019-04-14T07:44:45.634Z,2.50
2019-04-14T07:47:27.654Z,2.17
2019-04-14T07:50:00.434Z,2.00
2019-04-14T07:52:30.669Z,2.13
2019-04-14T07:55:15.812Z,2.30
2019-04-14T07:57:57.910Z,1.90
2019-04-14T08:00:34.275Z,2.27
2019-04-14T08:03:15.920Z,2.12
2019-04-14T08:05:50.615Z,2.20
2019-04-14T08:08:20.403Z,2.00
2019-04-14T08:10:49.181Z,2.08
2019-04-14T08:13:17.908Z,2.37
2019-04-14T08:15:46.567Z,2.02
2019-04-14T08:18:15.210Z,1.62
2019-04-14T08:20:43.852Z,1.95
2019-04-14T08:23:12.612Z,3.60
2019-04-14T08:25:41.411Z,1.90
2019-04-14T08:28:10.194Z,2.00
2019-04-14T08:30:38.975Z,1.80
2019-04-14T08:33:07.791Z,1.60
2019-04-14T08:35:36.551Z,0.98
2019-04-14T08:38:05.265Z,0.95
2019-04-14T08:40:34.019Z,1.57
2019-04-14T08:43:11.010Z,2.05
2019-04-14T08:45:51.571Z,1.70
2019-04-14T08:48:27.355Z,1.20
2019-04-14T08:51:04.305Z,1.90
2019-04-14T08:53:37.263Z,1.30
2019-04-14T08:56:16.590Z,1.95
2019-04-14T08:58:58.541Z,1.80
2019-04-14T09:01:42.270Z,2.00
2019-04-14T09:04:27.418Z,2.20
2019-04-14T09:07:03.898Z,1.40
2019-04-14T09:09:36.418Z,1.42
2019-04-14T09:12:15.691Z,1.50
2019-04-14T09:14:40.017Z,1.60
2019-04-14T09:17:08.683Z,1.27
2019-04-14T09:19:37.351Z,1.07
2019-04-14T09:22:06.059Z,1.20
2019-04-14T09:24:34.819Z,1.27
2019-04-14T09:27:03.627Z,1.17
2019-04-14T09:29:34.878Z,1.30
2019-04-14T09:32:05.167Z,1.50
2019-04-14T09:34:33.868Z,1.60
2019-04-14T09:37:05.232Z,1.75
2019-04-14T09:39:37.958Z,1.50
2019-04-14T09:42:06.691Z,1.90
2019-04-14T09:44:37.953Z,1.30
2019-04-14T09:47:06.626Z,1.30
2019-04-14T09:49:35.302Z,1.40
2019-04-14T09:52:03.999Z,1.40
2019-04-14T09:54:32.679Z,1.50
2019-04-14T09:57:01.352Z,1.40
2019-04-14T09:59:30.336Z,4.58
2019-04-14T10:02:02.933Z,4.00
2019-04-14T10:04:31.730Z,3.42
2019-04-14T10:07:00.486Z,2.52
2019-04-14T10:09:29.178Z,3.85
2019-04-14T10:11:57.961Z,2.70
2019-04-14T10:14:27.766Z,2.10
2019-04-14T10:16:56.490Z,1.95
2019-04-14T10:19:25.153Z,1.90
2019-04-14T10:21:53.918Z,2.25
2019-04-14T10:24:22.713Z,5.45
2019-04-14T10:26:51.504Z,6.20
2019-04-14T10:29:20.485Z,6.53
2019-04-14T10:31:52.402Z,3.15
2019-04-14T10:34:28.098Z,3.85
2019-04-14T10:36:56.819Z,6.05
2019-04-14T10:39:25.623Z,3.62
2019-04-14T10:41:54.285Z,3.95
2019-04-14T10:44:23.210Z,4.70
2019-04-14T10:46:51.967Z,3.02
2019-04-14T10:49:20.733Z,4.22
2019-04-14T10:51:49.453Z,3.60
2019-04-14T10:54:18.145Z,2.80
2019-04-14T10:56:48.014Z,3.60
2019-04-14T10:59:17.663Z,3.17
2019-04-14T11:01:47.433Z,2.10
2019-04-14T11:04:16.206Z,2.02
2019-04-14T11:06:46.528Z,3.42
2019-04-14T11:09:19.363Z,4.15
2019-04-14T11:11:51.787Z,2.83
2019-04-14T11:14:20.486Z,3.25
2019-04-14T11:16:49.364Z,3.85
2019-04-14T11:19:20.637Z,2.55
2019-04-14T11:21:49.505Z,2.25
2019-04-14T11:24:18.216Z,2.95
2019-04-14T11:26:46.869Z,2.67
2019-04-14T11:29:18.052Z,2.00
2019-04-14T11:31:57.140Z,2.50
2019-04-14T11:34:30.546Z,3.50
2019-04-14T11:37:25.569Z,2.90
2019-04-14T11:39:54.338Z,2.27
2019-04-14T11:42:23.152Z,2.25
2019-04-14T11:44:51.805Z,2.50
2019-04-14T11:47:20.493Z,2.17
2019-04-14T11:49:49.184Z,2.90
2019-04-14T11:52:17.888Z,2.92
2019-04-14T11:54:46.577Z,1.90
2019-04-14T11:57:15.232Z,2.50
2019-04-14T12:00:04.180Z,3.35
2019-04-14T12:02:50.512Z,4.40
2019-04-14T12:05:23.506Z,3.30
2019-04-14T12:07:53.700Z,3.27
2019-04-14T12:10:23.377Z,4.30
2019-04-14T12:12:52.105Z,3.40
2019-04-14T12:15:20.882Z,3.12
2019-04-14T12:17:49.584Z,5.03
2019-04-14T12:20:20.798Z,4.53
2019-04-14T12:22:49.631Z,4.97
2019-04-14T12:25:18.471Z,6.00
2019-04-14T12:27:47.180Z,4.28
2019-04-14T12:30:17.929Z,4.15
2019-04-14T12:32:46.181Z,5.10
2019-04-14T12:35:14.951Z,4.80
2019-04-14T12:37:44.650Z,5.10
2019-04-14T12:40:14.088Z,11.35
2019-04-14T12:42:44.387Z,5.72
2019-04-14T12:45:26.803Z,4.03
2019-04-14T12:48:03.269Z,2.90
2019-04-14T12:50:33.580Z,2.70
2019-04-14T12:53:02.366Z,3.62
2019-04-14T12:55:31.118Z,3.15
2019-04-14T12:58:04.141Z,3.70
2019-04-14T13:00:34.310Z,3.08
2019-04-14T13:03:04.077Z,26.07
2019-04-14T13:05:32.812Z,2.10
2019-04-14T13:08:02.508Z,6.58
2019-04-14T13:10:34.285Z,13.20
2019-04-14T13:13:03.055Z,2.10
2019-04-14T13:15:31.844Z,2.08
2019-04-14T13:18:00.523Z,3.37
2019-04-14T13:20:29.271Z,3.27
2019-04-14T13:22:58.056Z,2.12
2019-04-14T13:25:26.851Z,3.00
2019-04-14T13:27:55.756Z,2.65
2019-04-14T13:30:26.097Z,4.42
2019-04-14T13:32:55.974Z,3.00
2019-04-14T13:35:24.767Z,3.33
2019-04-14T13:37:53.468Z,2.25
2019-04-14T13:40:22.437Z,1.85
2019-04-14T13:42:51.152Z,2.40
2019-04-14T13:45:19.838Z,2.77
2019-04-14T13:47:49.423Z,2.40
2019-04-14T13:50:18.017Z,4.22
2019-04-14T13:52:47.528Z,3.87
2019-04-14T13:55:16.494Z,2.60
2019-04-14T13:57:45.204Z,7.28
2019-04-14T14:00:16.235Z,9.25
2019-04-14T14:02:45.980Z,5.78
2019-04-14T14:05:17.475Z,2.62
2019-04-14T14:07:46.302Z,3.30
2019-04-14T14:10:14.987Z,3.12
2019-04-14T14:12:46.120Z,4.00
2019-04-14T14:15:34.545Z,5.80
2019-04-14T14:18:14.283Z,6.05
2019-04-14T14:20:44.638Z,9.65
2019-04-14T14:23:23.867Z,10.20
2019-04-14T14:25:54.184Z,11.15
2019-04-14T14:28:23.055Z,10.15
2019-04-14T14:30:51.757Z,11.97
2019-04-14T14:33:22.883Z,11.88
2019-04-14T14:35:51.583Z,10.78
2019-04-14T14:38:20.363Z,11.85
2019-04-14T14:40:49.429Z,10.98
2019-04-14T14:43:19.257Z,10.88
2019-04-14T14:46:01.468Z,10.45
2019-04-14T14:48:31.789Z,10.98
2019-04-14T14:51:10.633Z,16.80
2019-04-14T14:53:39.525Z,16.45
2019-04-14T14:56:08.109Z,15.72
2019-04-14T14:58:40.245Z,17.70
2019-04-14T15:01:11.019Z,22.45
2019-04-14T15:03:42.120Z,21.82
2019-04-14T15:06:10.822Z,21.60
2019-04-14T15:08:39.529Z,16.60
2019-04-14T15:11:09.239Z,11.68
2019-04-14T15:13:40.444Z,12.53
2019-04-14T15:16:09.165Z,13.00
2019-04-14T15:18:37.825Z,10.10
2019-04-14T15:21:06.601Z,16.40
2019-04-14T15:23:35.402Z,15.53
2019-04-14T15:26:04.302Z,8.20
2019-04-14T15:28:33.066Z,7.17
2019-04-14T15:31:01.772Z,8.38
2019-04-14T15:33:30.564Z,12.10
2019-04-14T15:35:59.331Z,7.47
2019-04-14T15:38:28.047Z,11.90
2019-04-14T15:40:56.710Z,9.35
2019-04-14T15:43:25.427Z,9.95
2019-04-14T15:45:54.091Z,8.80
2019-04-14T15:48:25.275Z,11.12
2019-04-14T15:50:53.929Z,11.30
2019-04-14T15:53:22.609Z,10.93
2019-04-14T15:55:56.574Z,9.08
2019-04-14T15:58:32.577Z,9.63
2019-04-14T16:01:14.750Z,14.40
2019-04-14T16:03:47.724Z,9.53
2019-04-14T16:06:18.067Z,9.75
2019-04-14T16:08:48.298Z,8.35
2019-04-14T16:11:30.489Z,8.25
2019-04-14T16:14:14.333Z,7.85
2019-04-14T16:17:02.049Z,7.53
2019-04-14T16:19:35.564Z,6.67
2019-04-14T16:22:07.096Z,11.15
2019-04-14T16:24:35.885Z,11.85
2019-04-14T16:27:06.092Z,9.25
2019-04-14T16:29:39.401Z,16.87
2019-04-14T16:32:35.280Z,15.00
2019-04-14T16:35:12.221Z,16.45
2019-04-14T16:37:50.720Z,20.10
2019-04-14T16:40:19.575Z,21.55
2019-04-14T16:42:48.396Z,20.72
2019-04-14T16:45:17.381Z,24.23
2019-04-14T16:47:46.082Z,18.52
2019-04-14T16:50:15.088Z,22.52
2019-04-14T16:52:48.569Z,19.95
2019-04-14T16:55:18.801Z,22.10
2019-04-14T16:58:06.542Z,28.25
2019-04-14T17:00:43.623Z,32.48
2019-04-14T17:03:14.301Z,46.23
2019-04-14T17:05:43.143Z,45.65
2019-04-14T17:08:13.049Z,38.23
2019-04-14T17:10:41.677Z,39.10
2019-04-14T17:13:10.529Z,41.88
2019-04-14T17:15:46.994Z,39.67
2019-04-14T17:18:34.594Z,38.85
2019-04-14T17:21:24.906Z,33.05
2019-04-14T17:24:10.644Z,36.73
2019-04-14T17:26:47.398Z,29.57
2019-04-14T17:29:32.224Z,30.90
2019-04-14T17:32:02.539Z,28.80
2019-04-14T17:34:44.607Z,23.20
2019-04-14T17:37:34.809Z,22.95
2019-04-14T17:40:08.621Z,19.67
2019-04-14T17:42:47.648Z,22.80
2019-04-14T17:45:40.015Z,27.70
2019-04-14T17:48:30.949Z,29.57
2019-04-14T17:51:10.164Z,25.37
2019-04-14T17:53:42.954Z,23.02
2019-04-14T17:56:19.397Z,21.65
2019-04-14T17:59:07.524Z,21.00
2019-04-14T18:01:39.271Z,26.70
2019-04-14T18:04:09.602Z,27.75
2019-04-14T18:06:55.317Z,22.90
2019-04-14T18:09:34.931Z,21.17
2019-04-14T18:12:11.732Z,25.88
2019-04-14T18:14:58.205Z,19.45
2019-04-14T18:17:35.557Z,21.25
2019-04-14T18:20:07.776Z,20.08
2019-04-14T18:22:37.425Z,17.85
2019-04-14T18:25:19.358Z,16.85
2019-04-14T18:28:07.707Z,18.73
2019-04-14T18:30:42.456Z,20.62
2019-04-14T18:33:12.778Z,18.50
2019-04-14T18:35:50.861Z,21.15
2019-04-14T18:38:31.428Z,22.93
2019-04-14T18:41:01.614Z,24.10
2019-04-14T18:43:34.736Z,19.55
2019-04-14T18:46:05.097Z,18.77
2019-04-14T18:49:00.489Z,19.57
2019-04-14T18:51:30.696Z,20.52
2019-04-14T18:54:07.944Z,23.80
2019-04-14T18:56:56.421Z,22.90
2019-04-14T18:59:30.851Z,20.72
2019-04-14T19:02:01.010Z,19.82
2019-04-14T19:04:30.707Z,20.12
2019-04-14T19:06:59.467Z,19.70
2019-04-14T19:09:30.417Z,21.90
2019-04-14T19:12:17.210Z,20.65
2019-04-14T19:14:46.097Z,20.32
2019-04-14T19:17:34.585Z,29.42
2019-04-14T19:20:05.899Z,22.58
2019-04-14T19:22:34.602Z,27.35
2019-04-14T19:25:08.386Z,33.30
2019-04-14T19:27:33.930Z,47.23
2019-04-14T19:30:02.599Z,44.83
2019-04-14T19:32:35.338Z,51.13
2019-04-14T19:35:04.400Z,31.97
2019-04-14T19:37:34.478Z,26.15
2019-04-14T19:40:04.102Z,26.48
2019-04-14T19:42:32.782Z,26.65
2019-04-14T19:45:02.509Z,29.48
2019-04-14T19:47:37.295Z,25.43
2019-04-14T19:50:06.301Z,26.37
2019-04-14T19:52:34.887Z,27.62
2019-04-14T19:55:04.177Z,22.85
2019-04-14T19:57:35.582Z,25.55
2019-04-14T20:00:07.855Z,25.25
2019-04-14T20:02:41.539Z,32.15
2019-04-14T20:07:09.819Z,40.25
2019-04-14T20:08:15.023Z,42.93
2019-04-14T20:10:49.039Z,42.67
2019-04-14T20:13:19.235Z,39.50
2019-04-14T20:16:09.847Z,32.85
2019-04-14T20:18:48.830Z,29.90
2019-04-14T20:21:26.750Z,19.62
2019-04-14T20:24:16.195Z,20.10
2019-04-14T20:26:57.396Z,18.48
2019-04-14T20:29:29.097Z,15.75
2019-04-14T20:32:11.169Z,16.15
2019-04-14T20:34:45.461Z,13.43
2019-04-14T20:37:16.903Z,14.93
2019-04-14T20:39:50.279Z,14.93
2019-04-14T20:42:34.819Z,14.70
2019-04-14T20:45:07.432Z,18.50
2019-04-14T20:47:40.955Z,17.73
2019-04-14T20:52:48.472Z,13.50
2019-04-14T20:55:29.655Z,11.80
2019-04-14T20:58:03.650Z,13.28
2019-04-14T21:00:36.413Z,11.65
2019-04-14T21:03:25.484Z,9.93
2019-04-14T21:06:02.107Z,11.68
2019-04-14T21:08:48.693Z,10.78
2019-04-14T21:11:33.931Z,11.10
2019-04-14T21:14:21.107Z,9.13
2019-04-14T21:17:04.108Z,9.20
2019-04-14T21:19:35.555Z,9.73
2019-04-14T21:22:23.648Z,8.65
2019-04-14T21:24:55.460Z,9.18
2019-04-14T21:27:26.082Z,9.43
2019-04-14T21:30:03.587Z,9.33
2019-04-14T21:32:52.566Z,9.00
2019-04-14T21:35:33.131Z,8.53
2019-04-14T21:38:09.459Z,10.88
2019-04-14T21:40:40.119Z,9.73
2019-04-14T21:43:12.488Z,11.97
2019-04-14T21:45:41.513Z,9.88
2019-04-14T21:48:13.873Z,7.95
2019-04-14T21:50:42.861Z,11.18
2019-04-14T21:53:14.190Z,10.40
2019-04-14T21:55:43.280Z,8.03
2019-04-14T21:58:29.848Z,8.00
2019-04-14T22:01:36.676Z,5.33
2019-04-14T22:04:27.855Z,4.60
2019-04-14T22:06:58.482Z,5.62
2019-04-14T22:09:29.754Z,5.37
2019-04-14T22:12:04.739Z,4.15
2019-04-14T22:14:37.240Z,3.55
2019-04-14T22:17:07.350Z,4.10
2019-04-14T22:19:36.941Z,3.45
2019-04-14T22:22:05.675Z,3.67
2019-04-14T22:24:34.715Z,3.20
2019-04-14T22:27:06.628Z,4.25
2019-04-14T22:29:35.753Z,4.75
2019-04-14T22:32:07.352Z,4.37
2019-04-14T22:34:38.846Z,5.97
2019-04-14T22:37:07.908Z,4.83
2019-04-14T22:39:39.118Z,5.30
2019-04-14T22:42:07.640Z,5.12
2019-04-14T22:44:37.577Z,6.00
2019-04-14T22:47:06.617Z,6.53
2019-04-14T22:49:35.552Z,6.37
2019-04-14T22:52:12.370Z,7.35
2019-04-14T22:54:42.222Z,7.45
2019-04-14T22:57:11.306Z,5.40
2019-04-14T22:59:40.316Z,5.03
2019-04-14T23:02:17.600Z,5.33
2019-04-14T23:04:48.219Z,5.42
2019-04-14T23:07:30.523Z,6.42
2019-04-14T23:10:04.723Z,6.17
2019-04-14T23:12:45.525Z,9.05
2019-04-14T23:15:16.948Z,9.65
2019-04-14T23:17:53.242Z,5.22
2019-04-14T23:20:28.216Z,6.47
2019-04-14T23:23:01.793Z,5.10
2019-04-14T23:28:02.972Z,6.47
2019-04-14T23:30:31.999Z,15.95
2019-04-14T23:33:01.452Z,17.10
2019-04-14T23:35:30.328Z,15.25
2019-04-14T23:38:01.284Z,25.88
2019-04-14T23:40:31.937Z,29.20
2019-04-14T23:43:02.186Z,15.95
2019-04-14T23:45:31.438Z,18.48
2019-04-14T23:48:00.614Z,23.57
2019-04-14T23:50:29.970Z,13.00
2019-04-14T23:52:58.919Z,11.65
2019-04-14T23:55:28.016Z,11.75
2019-04-14T23:57:56.992Z,29.90
